San Diego, California
Current Conditions -  °F | °C
As of 11:51 PM on Thursday 23 Oct 2014 (Local Time) from KSAN Reporting Station
Clear Clear  
Wind Chill: 67°   Ceiling: Unl
Heat Index: 67°   Visibility: 9mi
Dew Point: 60°   Wind: 0mph
Humidity: 79%   Direction: NA
Pressure: 29.96"   Gusts: NA
Location:  32.72°N, 117.16°W
Report Text: KSAN 240651Z 00000KT 9SM CLR 19/16 A2996 RMK AO2 SLP146 T01940156
Loading
Personal Weather Stations






























Interactive Weather Map
Tropical Storm Tracking
New forecast layout! Learn more

10-Day Weather Forecast

Advertisements
Track Severe Weather on mobile